Time;durP1;ratioP1;P1;durP2;ratioP2;P2;SDS_P1;SDS_P2;PMS_P1;PMS_P2;Temp;Humidity;BMP_temperature;BMP_pressure;BME280_temperature;BME280_humidity;BME280_pressure;Samples;Min_cycle;Max_cycle;Signal;HPM_P1;HPM_P2
2023/01/01 00:01:23;;;;;;;8.32;5.60;;;23.70;56.40;;;;;;5077153;28;20494;-64
2023/01/01 00:03:51;;;;;;;6.60;5.80;;;23.60;56.40;;;;;;5076516;28;20443;-65
2023/01/01 00:06:16;;;;;;;7.65;5.60;;;23.60;56.40;;;;;;5082520;28;20025;-64
2023/01/01 00:08:42;;;;;;;8.63;5.93;;;23.60;56.40;;;;;;5076982;28;20472;-64
2023/01/01 00:11:09;;;;;;;7.30;5.50;;;23.60;56.40;;;;;;5075202;28;20027;-65
2023/01/01 00:13:36;;;;;;;6.93;5.80;;;23.50;56.40;;;;;;5070519;28;20043;-64
2023/01/01 00:16:09;;;;;;;7.65;5.68;;;23.50;56.30;;;;;;5076628;28;20093;-65
2023/01/01 00:18:36;;;;;;;7.75;6.00;;;23.50;56.40;;;;;;5076383;28;20106;-64
2023/01/01 00:21:21;;;;;;;7.78;6.20;;;23.50;56.50;;;;;;5077618;28;20028;-63
2023/01/01 00:23:47;;;;;;;7.05;5.63;;;23.50;56.50;;;;;;5077322;28;20115;-64
2023/01/01 00:26:15;;;;;;;7.75;6.50;;;23.50;56.60;;;;;;5081248;28;20538;-64
2023/01/01 00:28:41;;;;;;;7.30;6.20;;;23.50;56.70;;;;;;5079084;28;20082;-64
2023/01/01 00:31:12;;;;;;;7.68;6.18;;;23.50;56.70;;;;;;5080381;28;20475;-64
2023/01/01 00:33:37;;;;;;;6.95;5.85;;;23.40;56.60;;;;;;5078062;28;20051;-64
2023/01/01 00:36:14;;;;;;;6.97;6.20;;;23.40;56.60;;;;;;5079989;28;20052;-64
2023/01/01 00:38:41;;;;;;;7.53;6.15;;;23.40;56.70;;;;;;5076604;28;20515;-64
2023/01/01 00:41:07;;;;;;;7.68;6.88;;;23.40;56.70;;;;;;5082957;28;20020;-64
2023/01/01 00:43:33;;;;;;;8.02;6.53;;;23.40;56.80;;;;;;5076682;28;20499;-64
2023/01/01 00:45:58;;;;;;;7.50;6.35;;;23.40;56.90;;;;;;5069775;28;20036;-64
2023/01/01 00:48:24;;;;;;;7.38;6.53;;;23.30;56.70;;;;;;5077910;28;20077;-64
2023/01/01 00:50:51;;;;;;;8.95;6.90;;;23.30;56.70;;;;;;5076260;28;20111;-64
2023/01/01 00:53:17;;;;;;;7.65;6.68;;;23.30;56.80;;;;;;5077792;28;20032;-64
2023/01/01 00:55:43;;;;;;;7.18;6.43;;;23.30;56.90;;;;;;5078067;28;20035;-64
2023/01/01 00:58:10;;;;;;;7.18;6.40;;;23.30;56.90;;;;;;5078281;28;20475;-64
2023/01/01 01:00:36;;;;;;;7.72;6.38;;;23.20;56.90;;;;;;5073665;28;20044;-64
2023/01/01 01:03:02;;;;;;;7.60;6.40;;;23.20;56.90;;;;;;5077935;28;20029;-64
2023/01/01 01:05:28;;;;;;;7.38;6.15;;;23.20;56.90;;;;;;5077256;28;20344;-63
2023/01/01 01:07:54;;;;;;;6.90;6.20;;;23.20;56.90;;;;;;5075775;28;20036;-64
2023/01/01 01:10:21;;;;;;;7.60;6.50;;;23.20;57.10;;;;;;5077032;28;20107;-64
2023/01/01 01:12:46;;;;;;;8.30;6.20;;;23.20;57.50;;;;;;5078673;28;20032;-63
2023/01/01 01:15:13;;;;;;;8.00;6.90;;;23.20;57.00;;;;;;5074332;28;20031;-65
2023/01/01 01:17:38;;;;;;;7.18;6.15;;;23.20;57.10;;;;;;5079751;28;20027;-64
2023/01/01 01:20:05;;;;;;;7.03;6.00;;;23.10;57.00;;;;;;5081278;28;20028;-64
2023/01/01 01:22:30;;;;;;;8.77;6.10;;;23.10;57.10;;;;;;5076905;28;20078;-64
2023/01/01 01:24:56;;;;;;;6.60;5.90;;;23.10;57.10;;;;;;5079015;28;20036;-64
2023/01/01 01:27:22;;;;;;;6.30;5.65;;;23.10;57.20;;;;;;5080783;28;20035;-64
2023/01/01 01:29:48;;;;;;;7.38;5.80;;;23.10;57.20;;;;;;5079239;28;20031;-64
2023/01/01 01:32:14;;;;;;;7.90;6.28;;;23.00;57.30;;;;;;5067223;28;20390;-64
2023/01/01 01:34:39;;;;;;;7.15;5.93;;;23.00;57.30;;;;;;5078981;28;20364;-64
2023/01/01 01:37:05;;;;;;;6.82;5.68;;;23.00;57.30;;;;;;5061102;28;20031;-64
2023/01/01 01:39:31;;;;;;;6.75;6.07;;;23.00;57.30;;;;;;5078296;28;20092;-65
2023/01/01 01:41:56;;;;;;;7.50;6.03;;;23.00;57.40;;;;;;5083978;28;20032;-64
2023/01/01 01:44:53;;;;;;;7.22;6.00;;;23.00;57.40;;;;;;5083265;28;20497;-64
2023/01/01 01:47:39;;;;;;;6.60;5.93;;;23.00;57.40;;;;;;5064191;28;20510;-63
2023/01/01 01:50:14;;;;;;;9.30;7.22;;;23.00;57.50;;;;;;5083314;28;20487;-64
2023/01/01 01:52:51;;;;;;;7.15;6.45;;;23.00;57.50;;;;;;5082117;28;20099;-64
2023/01/01 01:55:17;;;;;;;7.78;6.93;;;22.90;57.40;;;;;;5063227;28;20028;-64
2023/01/01 01:57:42;;;;;;;8.15;7.35;;;22.90;57.40;;;;;;5080949;28;20024;-63
2023/01/01 02:00:09;;;;;;;8.05;6.75;;;22.90;57.40;;;;;;5085924;28;20029;-64
2023/01/01 02:02:39;;;;;;;8.38;7.30;;;22.90;57.50;;;;;;5079759;28;20478;-64
2023/01/01 02:05:05;;;;;;;8.15;7.28;;;22.90;57.50;;;;;;5069746;28;20395;-64
2023/01/01 02:07:32;;;;;;;8.60;7.20;;;22.90;57.50;;;;;;5083457;28;20060;-64
2023/01/01 02:09:59;;;;;;;8.75;7.28;;;22.90;57.60;;;;;;5082592;28;20418;-65
2023/01/01 02:12:26;;;;;;;8.10;7.30;;;22.90;57.50;;;;;;5065663;28;20532;-64
2023/01/01 02:14:52;;;;;;;8.13;7.28;;;22.90;57.50;;;;;;5083320;28;20072;-63
2023/01/01 02:17:41;;;;;;;8.05;7.25;;;22.90;57.50;;;;;;5079928;28;20461;-64
2023/01/01 02:20:11;;;;;;;9.65;7.85;;;22.80;57.50;;;;;;5084435;28;20382;-64
2023/01/01 02:23:09;;;;;;;7.93;7.00;;;22.80;57.40;;;;;;5079213;28;20104;-64
2023/01/01 02:26:06;;;;;;;8.32;7.43;;;22.80;57.50;;;;;;5084297;28;20031;-64
2023/01/01 02:28:59;;;;;;;8.63;7.70;;;22.80;57.50;;;;;;5082326;28;20064;-64
2023/01/01 02:31:42;;;;;;;8.00;7.20;;;22.80;57.40;;;;;;5078671;28;20043;-65
2023/01/01 02:34:11;;;;;;;8.38;7.43;;;22.70;57.40;;;;;;5082503;28;20017;-64
2023/01/01 02:36:45;;;;;;;8.95;7.75;;;22.70;57.40;;;;;;5079287;28;20012;-64
2023/01/01 02:39:13;;;;;;;8.23;7.32;;;22.70;57.40;;;;;;5083226;28;20138;-64
2023/01/01 02:41:42;;;;;;;9.50;7.80;;;22.70;57.40;;;;;;5079949;28;20028;-64
2023/01/01 02:44:10;;;;;;;7.88;7.07;;;22.70;57.40;;;;;;5081783;28;20418;-64
2023/01/01 02:46:36;;;;;;;7.82;7.03;;;22.70;57.40;;;;;;5079221;28;20511;-63
2023/01/01 02:49:01;;;;;;;8.63;7.82;;;22.60;57.30;;;;;;5083175;28;20032;-65
2023/01/01 02:51:42;;;;;;;8.38;7.55;;;22.70;57.40;;;;;;5061603;28;20044;-64
2023/01/01 02:54:17;;;;;;;8.57;7.78;;;22.70;57.40;;;;;;5081748;28;20496;-64
2023/01/01 02:57:13;;;;;;;9.40;7.75;;;22.60;57.40;;;;;;5079130;28;20182;-64
2023/01/01 03:03:37;;;;;;;8.70;7.43;;;22.60;57.40;;;;;;5024175;28;20068;-64
2023/01/01 03:06:22;;;;;;;9.10;8.20;;;22.60;57.40;;;;;;5077562;28;20036;-65
2023/01/01 03:09:16;;;;;;;8.60;7.72;;;22.60;57.40;;;;;;5079407;28;20029;-64
2023/01/01 03:12:08;;;;;;;8.18;7.35;;;22.60;57.40;;;;;;5077452;28;20055;-64
2023/01/01 03:14:52;;;;;;;8.63;6.97;;;22.60;57.40;;;;;;5067588;28;20039;-64
2023/01/01 03:17:31;;;;;;;8.45;7.63;;;22.50;57.30;;;;;;5079776;28;20375;-64
2023/01/01 03:20:01;;;;;;;10.10;7.82;;;22.50;57.30;;;;;;5084372;28;20035;-64
2023/01/01 03:22:35;;;;;;;8.85;7.95;;;22.50;57.30;;;;;;5078687;28;20036;-63
2023/01/01 03:25:13;;;;;;;8.95;8.05;;;22.50;57.30;;;;;;5080266;28;20503;-64
2023/01/01 03:28:00;;;;;;;9.27;7.15;;;22.50;57.30;;;;;;5083621;28;20423;-65
2023/01/01 03:30:28;;;;;;;8.20;7.25;;;22.50;57.30;;;;;;5076214;28;20036;-64
2023/01/01 03:32:59;;;;;;;7.40;6.70;;;22.50;57.30;;;;;;5082131;28;20075;-64
2023/01/01 03:35:39;;;;;;;8.82;7.28;;;22.50;57.30;;;;;;5067272;28;20028;-64
2023/01/01 03:38:12;;;;;;;7.70;6.90;;;22.40;57.30;;;;;;5082618;28;20450;-64
2023/01/01 03:40:39;;;;;;;8.25;7.45;;;22.40;57.30;;;;;;5077632;28;20086;-64
2023/01/01 03:43:21;;;;;;;8.30;7.43;;;22.40;57.30;;;;;;5079998;28;20031;-64
2023/01/01 03:45:49;;;;;;;8.57;7.40;;;22.40;57.80;;;;;;5080701;28;20051;-64
2023/01/01 03:48:15;;;;;;;8.50;7.63;;;22.40;57.30;;;;;;5079539;28;20540;-64
2023/01/01 03:50:48;;;;;;;8.60;7.53;;;22.40;57.30;;;;;;5069831;28;20035;-65
2023/01/01 03:53:50;;;;;;;7.45;6.65;;;22.40;57.30;;;;;;5078114;28;20024;-63
2023/01/01 03:56:29;;;;;;;7.43;6.65;;;22.40;57.30;;;;;;4993150;28;20060;-64
2023/01/01 03:59:22;;;;;;;8.30;7.38;;;22.40;57.30;;;;;;5071145;28;20423;-64
2023/01/01 04:01:52;;;;;;;7.70;6.90;;;22.30;57.20;;;;;;5079325;28;20036;-64
2023/01/01 04:04:18;;;;;;;7.55;6.75;;;22.30;57.20;;;;;;5074041;28;20148;-64
2023/01/01 04:06:45;;;;;;;7.55;6.72;;;22.30;57.20;;;;;;5066273;28;20036;-64
2023/01/01 04:09:16;;;;;;;7.85;7.05;;;22.30;57.30;;;;;;5063212;28;20035;-64
2023/01/01 04:12:00;;;;;;;8.10;7.30;;;22.30;57.20;;;;;;5079046;28;20103;-64
2023/01/01 04:14:30;;;;;;;7.97;7.18;;;22.30;57.30;;;;;;5076396;28;20118;-64
2023/01/01 04:16:56;;;;;;;8.00;7.20;;;22.30;57.30;;;;;;5075670;28;20070;-64
2023/01/01 04:19:22;;;;;;;7.97;7.18;;;22.30;57.30;;;;;;5080233;28;20039;-63
2023/01/01 04:21:48;;;;;;;7.72;6.78;;;22.20;57.20;;;;;;5080821;28;20044;-64
2023/01/01 04:24:22;;;;;;;8.07;7.18;;;22.30;57.30;;;;;;5045449;28;20385;-65
2023/01/01 04:26:49;;;;;;;8.27;7.47;;;22.20;57.20;;;;;;5034790;28;20108;-65
2023/01/01 04:29:15;;;;;;;7.97;7.18;;;22.20;57.20;;;;;;5037740;28;20026;-64
2023/01/01 04:31:40;;;;;;;7.90;7.10;;;22.30;57.30;;;;;;5034897;28;20035;-65
2023/01/01 04:34:06;;;;;;;8.85;7.68;;;22.20;57.20;;;;;;5036848;28;20119;-65
2023/01/01 04:36:32;;;;;;;7.72;6.93;;;22.20;57.30;;;;;;5042727;28;20060;-64
2023/01/01 04:38:58;;;;;;;8.23;7.38;;;22.20;57.30;;;;;;5032878;28;20033;-65
2023/01/01 04:41:23;;;;;;;8.70;7.80;;;22.20;57.30;;;;;;5035571;28;20021;-65
2023/01/01 04:43:49;;;;;;;8.20;7.40;;;22.20;57.30;;;;;;5036458;28;20022;-65
2023/01/01 04:46:16;;;;;;;8.38;7.53;;;22.20;57.30;;;;;;5037622;28;20028;-65
2023/01/01 04:48:42;;;;;;;8.13;7.32;;;22.20;57.30;;;;;;5034169;28;20029;-65
2023/01/01 04:51:10;;;;;;;8.27;7.47;;;22.20;57.30;;;;;;5033482;28;20037;-65
2023/01/01 04:53:36;;;;;;;8.02;7.20;;;22.10;57.20;;;;;;5032648;28;20087;-64
2023/01/01 04:56:03;;;;;;;8.70;7.80;;;22.10;57.20;;;;;;5034086;28;20541;-65
2023/01/01 04:58:28;;;;;;;8.60;7.50;;;22.10;57.20;;;;;;5034272;28;20469;-65
2023/01/01 05:00:54;;;;;;;7.97;7.18;;;22.10;57.20;;;;;;5032803;28;20032;-65
2023/01/01 05:03:20;;;;;;;8.73;7.82;;;22.10;57.20;;;;;;5040933;28;20040;-65
2023/01/01 05:05:46;;;;;;;8.45;7.65;;;22.10;57.20;;;;;;5038285;28;20022;-65
2023/01/01 05:08:11;;;;;;;8.27;7.47;;;22.10;57.20;;;;;;5036341;28;20104;-65
2023/01/01 05:10:37;;;;;;;8.60;7.70;;;22.10;57.20;;;;;;5034734;28;20492;-65
2023/01/01 05:13:06;;;;;;;8.52;7.35;;;22.10;57.20;;;;;;5036955;28;20132;-64
2023/01/01 05:15:35;;;;;;;7.55;6.78;;;22.10;57.20;;;;;;5051772;28;20034;-64
2023/01/01 05:18:00;;;;;;;8.60;7.70;;;22.10;57.20;;;;;;5036243;28;20499;-64
2023/01/01 05:20:26;;;;;;;8.18;7.38;;;22.10;57.20;;;;;;5035853;28;20030;-65
2023/01/01 05:22:51;;;;;;;8.05;7.22;;;22.10;57.20;;;;;;5035029;28;20513;-64
2023/01/01 05:25:17;;;;;;;8.80;7.88;;;22.10;57.20;;;;;;5035043;28;20021;-64
2023/01/01 05:27:42;;;;;;;8.88;8.00;;;22.00;57.20;;;;;;5034144;28;20104;-64
2023/01/01 05:30:08;;;;;;;8.40;7.50;;;22.10;57.20;;;;;;5033283;28;20479;-65
2023/01/01 05:32:36;;;;;;;7.90;7.07;;;22.00;57.20;;;;;;5033676;28;20529;-65
2023/01/01 05:35:02;;;;;;;8.57;7.68;;;22.00;57.20;;;;;;5023351;28;20460;-64
2023/01/01 05:37:27;;;;;;;8.52;7.70;;;22.00;57.20;;;;;;5020505;28;20457;-65
2023/01/01 05:39:53;;;;;;;8.45;7.63;;;22.00;57.20;;;;;;5017470;28;20029;-64
2023/01/01 05:42:19;;;;;;;8.73;7.82;;;22.00;57.20;;;;;;5023255;28;20456;-65
2023/01/01 05:44:44;;;;;;;8.30;7.40;;;22.00;57.20;;;;;;5021153;28;20022;-65
2023/01/01 05:47:11;;;;;;;8.68;7.65;;;22.00;57.20;;;;;;5020919;28;20441;-65
2023/01/01 05:49:36;;;;;;;8.45;7.63;;;22.00;57.20;;;;;;5022517;28;20017;-64
2023/01/01 05:52:02;;;;;;;8.48;7.68;;;22.00;57.20;;;;;;5018314;28;20061;-64
2023/01/01 05:54:28;;;;;;;8.02;7.22;;;22.00;57.20;;;;;;5017632;28;20064;-64
2023/01/01 05:56:53;;;;;;;8.70;7.80;;;22.00;57.20;;;;;;5022966;28;20457;-64
2023/01/01 05:59:19;;;;;;;8.25;7.40;;;21.90;57.20;;;;;;5021524;28;20029;-64
2023/01/01 06:01:44;;;;;;;7.80;7.00;;;21.90;57.20;;;;;;5020020;28;20030;-64
2023/01/01 06:04:10;;;;;;;8.20;7.32;;;22.00;57.20;;;;;;5017211;28;20032;-65
2023/01/01 06:06:36;;;;;;;8.32;7.15;;;21.90;57.20;;;;;;5021752;28;20104;-65
2023/01/01 06:09:03;;;;;;;8.23;7.40;;;21.90;57.20;;;;;;5020645;28;20056;-65
2023/01/01 06:11:29;;;;;;;8.15;7.35;;;21.90;57.20;;;;;;5026194;28;20032;-64
2023/01/01 06:13:58;;;;;;;7.90;7.10;;;21.90;57.20;;;;;;5023443;28;20463;-64
2023/01/01 06:16:24;;;;;;;7.65;6.55;;;21.90;57.20;;;;;;5022997;28;20038;-64
2023/01/01 06:18:50;;;;;;;8.13;7.32;;;21.90;57.20;;;;;;5021496;28;20480;-64
2023/01/01 06:21:19;;;;;;;8.52;7.60;;;21.90;57.20;;;;;;5021848;28;20026;-64
2023/01/01 06:23:45;;;;;;;8.93;8.02;;;21.90;57.20;;;;;;5019979;28;20113;-64
2023/01/01 06:26:15;;;;;;;7.78;6.97;;;21.90;57.20;;;;;;5016830;28;20085;-64
2023/01/01 06:28:41;;;;;;;7.47;6.68;;;21.80;57.10;;;;;;5020176;28;20710;-65
2023/01/01 06:31:09;;;;;;;7.55;6.65;;;21.80;57.10;;;;;;5020308;28;20026;-64
2023/01/01 06:33:35;;;;;;;6.93;6.22;;;21.80;57.10;;;;;;5019096;28;20385;-65
2023/01/01 06:36:04;;;;;;;7.15;6.45;;;21.80;57.10;;;;;;5018406;28;20030;-63
2023/01/01 06:38:31;;;;;;;7.50;6.80;;;21.80;57.10;;;;;;5022293;28;20397;-64
2023/01/01 06:40:58;;;;;;;7.90;7.10;;;21.80;57.10;;;;;;5023704;28;20025;-65
2023/01/01 06:43:24;;;;;;;7.90;7.13;;;21.80;57.10;;;;;;5018362;28;20033;-64
2023/01/01 06:46:05;;;;;;;7.72;6.93;;;21.80;57.10;;;;;;5018778;28;20026;-65
2023/01/01 06:48:34;;;;;;;7.05;6.35;;;21.80;57.10;;;;;;5020101;28;20365;-64
2023/01/01 06:51:06;;;;;;;7.03;6.32;;;21.80;57.10;;;;;;5019302;28;20060;-64
2023/01/01 06:53:31;;;;;;;7.93;7.13;;;21.80;57.10;;;;;;5027122;28;20045;-64
2023/01/01 06:55:57;;;;;;;7.63;6.82;;;21.80;57.10;;;;;;5020471;28;20381;-65
2023/01/01 06:58:23;;;;;;;7.45;6.65;;;21.80;57.10;;;;;;5019195;28;20047;-64
2023/01/01 07:00:53;;;;;;;7.38;6.60;;;21.80;57.10;;;;;;5018497;28;20383;-65
2023/01/01 07:03:19;;;;;;;7.25;6.55;;;21.80;57.10;;;;;;5014575;28;20041;-64
2023/01/01 07:05:45;;;;;;;7.70;6.90;;;21.80;57.20;;;;;;5016706;28;20436;-64
2023/01/01 07:08:10;;;;;;;7.35;6.55;;;21.80;57.10;;;;;;5014879;28;20101;-65
2023/01/01 07:10:36;;;;;;;7.05;6.35;;;21.80;57.10;;;;;;5019830;28;20026;-64
2023/01/01 07:13:01;;;;;;;8.00;7.20;;;21.70;57.00;;;;;;5017199;28;20030;-64
2023/01/01 07:15:27;;;;;;;7.43;6.72;;;21.80;57.10;;;;;;5018572;28;20033;-65
2023/01/01 07:17:53;;;;;;;7.35;6.65;;;21.70;57.10;;;;;;5015778;28;20093;-65
2023/01/01 07:20:18;;;;;;;7.05;6.35;;;21.70;57.10;;;;;;5016856;28;20030;-64
2023/01/01 07:22:44;;;;;;;7.38;6.60;;;21.70;57.10;;;;;;5020130;28;20468;-64
2023/01/01 07:25:13;;;;;;;7.80;7.00;;;21.70;57.10;;;;;;5018564;28;20029;-64
2023/01/01 07:27:39;;;;;;;7.10;6.40;;;21.70;57.10;;;;;;5018853;28;20048;-65
2023/01/01 07:30:05;;;;;;;7.03;6.32;;;21.70;57.10;;;;;;5017153;28;20125;-64
2023/01/01 07:32:31;;;;;;;7.13;6.43;;;21.70;57.10;;;;;;5015987;28;20109;-64
2023/01/01 07:34:56;;;;;;;7.60;6.80;;;21.70;57.10;;;;;;5018350;28;20565;-64
2023/01/01 07:37:25;;;;;;;7.40;6.70;;;21.70;57.10;;;;;;5019532;28;20041;-64
2023/01/01 07:39:51;;;;;;;7.35;6.55;;;21.70;57.10;;;;;;5020739;28;20037;-65
2023/01/01 07:42:17;;;;;;;7.43;6.50;;;21.70;57.10;;;;;;5019478;28;20030;-65
2023/01/01 07:44:42;;;;;;;7.13;6.43;;;21.70;57.10;;;;;;5017190;28;20072;-64
2023/01/01 07:47:20;;;;;;;6.95;6.25;;;21.70;57.10;;;;;;5020273;28;20892;-64
2023/01/01 07:49:46;;;;;;;6.97;6.28;;;21.60;57.10;;;;;;5019464;28;20084;-64
2023/01/01 07:52:11;;;;;;;6.90;6.20;;;21.70;57.10;;;;;;5018194;28;20026;-64
2023/01/01 07:54:37;;;;;;;7.57;6.78;;;21.70;57.20;;;;;;5021603;28;20104;-64
2023/01/01 07:57:02;;;;;;;7.38;6.68;;;21.70;57.10;;;;;;5023321;28;20029;-64
2023/01/01 07:59:28;;;;;;;7.15;6.45;;;21.60;57.10;;;;;;5018093;28;20049;-64
2023/01/01 08:01:53;;;;;;;7.47;6.68;;;21.60;57.10;;;;;;5013894;28;20022;-64
2023/01/01 08:04:19;;;;;;;8.02;6.75;;;21.60;57.10;;;;;;5017254;28;20109;-64
2023/01/01 08:06:45;;;;;;;7.13;6.43;;;21.60;57.10;;;;;;5019630;28;20028;-65
2023/01/01 08:09:10;;;;;;;7.15;6.45;;;21.60;57.10;;;;;;5021976;28;20022;-65
2023/01/01 08:11:36;;;;;;;7.38;6.68;;;21.60;57.10;;;;;;5018942;28;20032;-64
2023/01/01 08:14:01;;;;;;;7.13;6.25;;;21.60;57.10;;;;;;5019540;28;20033;-64
2023/01/01 08:16:27;;;;;;;7.28;6.47;;;21.60;57.10;;;;;;5026252;28;20043;-65
2023/01/01 08:18:53;;;;;;;7.30;6.60;;;21.60;57.10;;;;;;5019507;28;20128;-64
2023/01/01 08:21:18;;;;;;;7.50;6.70;;;21.60;57.10;;;;;;5019447;28;20477;-64
2023/01/01 08:23:44;;;;;;;7.10;6.40;;;21.60;57.10;;;;;;5019455;28;20030;-64
2023/01/01 08:26:15;;;;;;;7.30;6.60;;;21.60;57.10;;;;;;5019395;28;20037;-64
2023/01/01 08:28:41;;;;;;;6.82;6.15;;;21.60;57.10;;;;;;5015930;28;20060;-65
2023/01/01 08:31:07;;;;;;;7.28;6.55;;;21.60;57.10;;;;;;5017627;28;20180;-64
2023/01/01 08:33:32;;;;;;;7.53;6.63;;;21.60;57.10;;;;;;5017164;28;20470;-65
2023/01/01 08:35:59;;;;;;;7.45;6.75;;;21.60;57.10;;;;;;5019013;28;20033;-64
2023/01/01 08:38:25;;;;;;;7.63;6.82;;;21.50;57.10;;;;;;5019459;28;20022;-65
2023/01/01 08:40:50;;;;;;;7.05;6.32;;;21.50;57.10;;;;;;5020515;28;20040;-64
2023/01/01 08:43:16;;;;;;;7.20;6.25;;;21.60;57.10;;;;;;5025239;28;20034;-64
2023/01/01 08:45:42;;;;;;;7.60;6.57;;;21.60;57.10;;;;;;5014936;28;20036;-64
2023/01/01 08:48:08;;;;;;;7.50;6.43;;;21.60;57.20;;;;;;5017669;28;20472;-64
2023/01/01 08:50:33;;;;;;;7.78;6.75;;;21.50;57.10;;;;;;5018145;28;20112;-64
2023/01/01 08:52:59;;;;;;;8.48;6.60;;;21.50;57.10;;;;;;5019685;28;20022;-64
2023/01/01 08:55:25;;;;;;;8.05;6.70;;;21.50;57.10;;;;;;5016818;28;20380;-64
2023/01/01 08:57:50;;;;;;;8.48;6.88;;;21.50;57.10;;;;;;5016804;28;20030;-65
2023/01/01 09:00:17;;;;;;;8.38;6.80;;;21.50;57.20;;;;;;5015584;28;20464;-64
2023/01/01 09:02:43;;;;;;;8.43;6.68;;;21.50;57.10;;;;;;5022863;28;20029;-64
2023/01/01 09:05:09;;;;;;;7.95;6.68;;;21.50;57.20;;;;;;5023799;28;20036;-64
2023/01/01 09:07:34;;;;;;;7.10;5.90;;;21.50;57.20;;;;;;5017558;28;20814;-64
2023/01/01 09:10:00;;;;;;;6.97;6.28;;;21.50;57.20;;;;;;5017544;28;20037;-64
2023/01/01 09:12:26;;;;;;;7.68;6.70;;;21.50;57.20;;;;;;5023017;28;20038;-65
2023/01/01 09:14:51;;;;;;;7.55;6.25;;;21.50;57.20;;;;;;5020037;28;20037;-65
2023/01/01 09:17:17;;;;;;;7.72;6.38;;;21.50;57.20;;;;;;5019052;28;20349;-64
2023/01/01 09:19:42;;;;;;;7.38;6.28;;;21.50;57.30;;;;;;5017962;28;20037;-65
2023/01/01 09:22:11;;;;;;;7.78;6.35;;;21.50;57.30;;;;;;5024378;28;20407;-64
2023/01/01 09:24:38;;;;;;;9.63;7.63;;;21.50;57.30;;;;;;5022614;28;20481;-64
2023/01/01 09:27:04;;;;;;;7.95;6.80;;;21.50;57.30;;;;;;5025607;28;20033;-65
2023/01/01 09:29:29;;;;;;;9.38;7.05;;;21.50;57.30;;;;;;5021808;28;20032;-65
2023/01/01 09:31:55;;;;;;;8.48;6.55;;;21.50;57.30;;;;;;5022300;28;20390;-64
2023/01/01 09:34:21;;;;;;;9.02;6.90;;;21.50;57.30;;;;;;5022733;28;20044;-64
2023/01/01 09:36:47;;;;;;;7.85;6.95;;;21.50;57.80;;;;;;5023359;28;20042;-65
2023/01/01 09:39:14;;;;;;;8.75;7.03;;;21.50;57.40;;;;;;5025164;28;20051;-62
2023/01/01 09:41:58;;;;;;;8.80;7.25;;;21.50;57.40;;;;;;5021606;28;20449;-64
2023/01/01 09:44:24;;;;;;;9.50;7.13;;;21.50;57.40;;;;;;5033937;28;20124;-64
2023/01/01 09:46:51;;;;;;;9.00;7.03;;;21.40;57.40;;;;;;5021440;28;20116;-65
2023/01/01 09:49:36;;;;;;;11.25;8.00;;;21.50;57.40;;;;;;5019284;28;20108;-63
2023/01/01 09:52:04;;;;;;;9.60;7.60;;;21.40;57.40;;;;;;5020107;28;20018;-64
2023/01/01 09:54:32;;;;;;;10.35;7.15;;;21.40;57.40;;;;;;5020445;28;20033;-64
2023/01/01 09:57:00;;;;;;;10.93;7.30;;;21.40;57.40;;;;;;5034051;28;20108;-65
2023/01/01 09:59:26;;;;;;;8.40;6.90;;;21.40;57.40;;;;;;5025088;28;20032;-64
2023/01/01 10:02:22;;;;;;;11.52;8.07;;;21.40;57.40;;;;;;5020401;28;20507;-65
2023/01/01 10:04:57;;;;;;;10.40;7.70;;;21.40;57.40;;;;;;5020358;28;20061;-64
2023/01/01 10:07:49;;;;;;;9.65;7.47;;;21.40;57.40;;;;;;5023289;28;20034;-64
2023/01/01 10:10:51;;;;;;;10.43;7.78;;;21.40;57.40;;;;;;5018147;28;20393;-65
2023/01/01 10:13:22;;;;;;;9.43;7.25;;;21.40;57.40;;;;;;5018245;28;20057;-64
2023/01/01 10:16:21;;;;;;;10.32;7.85;;;21.40;57.40;;;;;;5019163;28;20485;-64
2023/01/01 10:18:50;;;;;;;12.30;7.17;;;21.40;57.40;;;;;;5018386;28;20030;-64
2023/01/01 10:21:39;;;;;;;10.40;7.78;;;21.40;57.40;;;;;;5017913;28;20348;-64
2023/01/01 10:24:25;;;;;;;9.70;7.32;;;21.40;57.40;;;;;;5019245;28;20136;-64
2023/01/01 10:26:54;;;;;;;9.88;7.30;;;21.40;57.40;;;;;;5021183;28;20508;-65
2023/01/01 10:29:48;;;;;;;11.40;8.20;;;21.40;57.40;;;;;;5018408;28;20544;-64
2023/01/01 10:32:20;;;;;;;10.10;7.57;;;21.40;57.40;;;;;;5019654;28;20108;-64
2023/01/01 10:34:47;;;;;;;11.13;7.57;;;21.40;57.40;;;;;;5019107;28;20548;-65
2023/01/01 10:37:14;;;;;;;11.20;7.13;;;21.40;57.40;;;;;;5022649;28;20031;-64
2023/01/01 10:39:40;;;;;;;10.15;8.00;;;21.40;57.40;;;;;;5017189;28;20033;-64
2023/01/01 10:42:06;;;;;;;10.75;7.68;;;21.40;57.40;;;;;;5022363;28;20025;-64
2023/01/01 10:44:33;;;;;;;11.18;7.72;;;21.40;57.40;;;;;;5021840;28;20352;-64
2023/01/01 10:47:24;;;;;;;10.98;7.65;;;21.40;57.40;;;;;;5022661;28;20099;-64
2023/01/01 10:50:08;;;;;;;11.27;7.70;;;21.40;57.40;;;;;;5021363;28;20037;-64
2023/01/01 10:52:39;;;;;;;10.95;7.40;;;21.40;57.40;;;;;;5020111;28;20369;-64
2023/01/01 10:55:18;;;;;;;10.52;7.28;;;21.40;57.40;;;;;;5019254;28;20041;-64
2023/01/01 10:57:43;;;;;;;11.02;7.97;;;21.40;57.40;;;;;;5017067;28;20029;-64
2023/01/01 11:00:17;;;;;;;11.95;7.95;;;21.40;57.90;;;;;;5019628;28;20550;-64
2023/01/01 11:02:42;;;;;;;11.55;7.50;;;21.40;57.40;;;;;;5020576;28;20559;-64
2023/01/01 11:05:21;;;;;;;10.88;7.78;;;21.40;57.40;;;;;;5017801;28;20064;-65
2023/01/01 11:07:47;;;;;;;11.40;7.93;;;21.40;57.50;;;;;;5014851;28;20385;-64
2023/01/01 11:10:21;;;;;;;12.40;8.30;;;21.40;57.40;;;;;;5018632;28;20280;-65
2023/01/01 11:12:49;;;;;;;11.02;7.82;;;21.40;57.40;;;;;;5019613;28;20028;-65
2023/01/01 11:15:41;;;;;;;12.50;7.97;;;21.40;57.40;;;;;;5021181;28;20441;-65
2023/01/01 11:18:34;;;;;;;10.95;7.57;;;21.40;57.50;;;;;;5018638;28;20040;-65
2023/01/01 11:21:02;;;;;;;10.93;7.65;;;21.40;57.50;;;;;;5017893;28;20484;-65
2023/01/01 11:23:33;;;;;;;11.10;7.60;;;21.40;57.50;;;;;;5036024;28;20553;-65
2023/01/01 11:26:16;;;;;;;11.48;7.78;;;21.40;57.50;;;;;;5020414;28;20021;-64
2023/01/01 11:29:15;;;;;;;11.00;7.60;;;21.30;57.50;;;;;;5018924;28;20519;-64
2023/01/01 11:31:43;;;;;;;11.60;8.15;;;21.40;57.50;;;;;;5016543;28;20049;-65
2023/01/01 11:34:38;;;;;;;12.23;8.02;;;21.40;57.50;;;;;;5018067;28;20045;-65
2023/01/01 11:37:09;;;;;;;11.23;7.78;;;21.30;57.50;;;;;;5019585;28;20032;-64
2023/01/01 11:39:36;;;;;;;11.30;7.60;;;21.40;57.50;;;;;;5017587;28;20037;-65
2023/01/01 11:42:03;;;;;;;11.02;7.80;;;21.30;57.50;;;;;;5017582;28;20021;-64
2023/01/01 11:44:43;;;;;;;10.63;7.60;;;21.30;57.60;;;;;;5018047;28;20029;-64
2023/01/01 11:47:31;;;;;;;10.98;7.78;;;21.30;57.60;;;;;;5020193;28;20036;-64
2023/01/01 11:50:27;;;;;;;12.25;7.28;;;21.40;57.60;;;;;;5033751;28;20436;-64
2023/01/01 11:52:57;;;;;;;10.50;7.28;;;21.30;57.60;;;;;;5017680;28;20040;-64
2023/01/01 11:55:23;;;;;;;12.70;7.97;;;21.30;57.60;;;;;;5018856;28;20039;-65
2023/01/01 11:57:58;;;;;;;10.90;7.53;;;21.30;57.60;;;;;;5020747;28;20029;-64
2023/01/01 12:00:24;;;;;;;10.07;6.75;;;21.30;57.60;;;;;;5017741;28;20124;-65
2023/01/01 12:02:57;;;;;;;13.60;7.93;;;21.30;57.60;;;;;;5017339;28;20477;-64
2023/01/01 12:05:45;;;;;;;11.32;7.70;;;21.30;57.60;;;;;;5019175;28;20022;-64
2023/01/01 12:08:16;;;;;;;11.60;7.38;;;21.30;57.60;;;;;;5018554;28;20425;-65
2023/01/01 12:10:57;;;;;;;11.55;8.02;;;21.40;57.60;;;;;;5019036;28;20026;-64
2023/01/01 12:13:28;;;;;;;12.32;7.72;;;21.40;57.60;;;;;;5017813;28;20033;-64
2023/01/01 12:16:08;;;;;;;10.52;7.80;;;21.40;57.60;;;;;;5017149;28;20037;-65
2023/01/01 12:18:38;;;;;;;12.75;7.75;;;21.40;57.60;;;;;;5021017;28;20496;-65
2023/01/01 12:21:13;;;;;;;11.38;7.10;;;21.40;57.70;;;;;;5018917;28;20169;-65
2023/01/01 12:23:39;;;;;;;10.65;7.50;;;21.40;57.70;;;;;;5020421;28;20038;-64
2023/01/01 12:26:07;;;;;;;13.23;8.13;;;21.40;57.70;;;;;;5016029;28;20048;-64
2023/01/01 12:28:38;;;;;;;11.93;7.95;;;21.40;57.60;;;;;;5016587;28;20105;-64
2023/01/01 12:31:29;;;;;;;13.48;8.60;;;21.40;57.60;;;;;;5018356;28;20108;-64
2023/01/01 12:34:33;;;;;;;13.57;8.10;;;21.40;57.60;;;;;;5014991;28;20080;-64
2023/01/01 12:37:04;;;;;;;12.88;8.70;;;21.40;57.70;;;;;;5023611;28;20485;-64
2023/01/01 12:39:48;;;;;;;13.68;9.10;;;21.40;57.70;;;;;;5017223;28;20503;-65
2023/01/01 12:42:38;;;;;;;13.43;9.15;;;21.40;57.70;;;;;;5013079;28;20356;-65
2023/01/01 12:45:07;;;;;;;13.05;8.75;;;21.40;57.80;;;;;;5019631;28;20496;-65
2023/01/01 12:47:42;;;;;;;12.70;8.40;;;21.40;57.90;;;;;;5017906;28;20486;-65
2023/01/01 12:50:39;;;;;;;14.10;8.75;;;21.40;57.90;;;;;;5022593;28;20153;-65
2023/01/01 12:53:32;;;;;;;16.73;9.40;;;21.40;57.90;;;;;;5024542;28;20068;-64
2023/01/01 12:56:06;;;;;;;13.60;8.45;;;21.40;57.90;;;;;;5021408;28;20040;-65
2023/01/01 12:58:34;;;;;;;13.45;8.07;;;21.40;57.90;;;;;;5024537;28;20205;-65
2023/01/01 13:01:08;;;;;;;13.17;8.63;;;21.40;58.00;;;;;;5020220;28;20065;-65
2023/01/01 13:03:46;;;;;;;12.80;8.73;;;21.40;57.90;;;;;;5018949;28;20043;-65
2023/01/01 13:06:13;;;;;;;12.82;9.02;;;21.40;57.90;;;;;;5023104;28;20109;-64
2023/01/01 13:08:40;;;;;;;12.20;8.02;;;21.40;57.90;;;;;;5016892;28;20033;-64